KTVC/TVC METAR and TAF weather

Enter ICAO airport designator
Station Type Date Time Source
KTVC METAR 2020/04/03 22:53 UTC NOAA

KTVC 032253Z VRB04KT 10SM CLR 10/00 A3001 RMK AO2 SLP168 T01000000


Station Type Date Time Source
KTVC Decoded METAR 2020/04/03 22:53 UTC NOAA

CHERRY CAPITAL AIRPORT, MI, United States (KTVC) 44-44N 085-34W 190M
Apr 03, 2020 - 06:53 PM EDT / 2020.04.03 2253 UTC
Wind: Variable at 5 MPH (4 KT):0
Visibility: 10 mile(s):0
Sky conditions: clear
Temperature: 50.0 F (10.0 C)
Dew Point: 32.0 F (0.0 C)
Relative Humidity: 49%
Pressure (altimeter): 30.01 in. Hg (1016 hPa)
ob: KTVC 032253Z VRB04KT 10SM CLR 10/00 A3001 RMK AO2 SLP168 T01000000
cycle: 23

Station Type Date Time Source
KTVC TAF 2020/04/03 18:22 UTC NOAA

TAF KTVC 031720Z 0318/0418 03005KT P6SM SCT200
FM040900 VRB04KT 6SM -SHRA BKN060
FM041200 00000KT 6SM -SHRA OVC035
FM041330 32005KT 4SM -SHRA OVC015
FM041500 32006KT P6SM OVC009

Example: see airport list